Detall de PIREP

Printer-friendly versionPDF version

[2015/04/26 10:49:00]
Flight IATA:CT3404
Pilot Number:016
Company ICAO:CAT
Aircraft Type:B744/E
PAX:300
Departing Airport: LEBL
Destination Airport: GCLP
Alternate Airport:GCXO
Online: VATSIM
Route:SENIA UW96 NEXAS UN975 GOTOR UN857 TERTO
Flight Level:F350
No Slew and time accel
No pause
Crash detect
Detect pilot in Cockpit between each 30 and 45 minutes
10:49 Zero fuel Weight: 463949 Lbs, Fuel Weight: 165917 Lbs
10:49 VATSIM:LEBL 261730Z 16007KT 8000 FEW007 18/16 Q1004 NOSIG
10:49 VATSIM:GCLP 261730Z 03021KT 9999 FEW020 21/15 Q1018 NOSIG
10:51 Parking Brakes off
11:02 Take-off
11:02 Take off Weight: 627346 Lbs
11:02 Wind: 161º @ 007 Knots Heading: 067º
11:02 POS N41º 17´ 19´´ E002º 05´ 35´´
11:02 Gear Up: 210 Knots
11:02 Flaps:3 at 210 Knots
11:02 Flaps:2 at 221 Knots
11:05 Flaps:1 at 252 Knots
11:06 Flaps:0 at 280 Knots
11:16 TOC
11:16 Fuel Weight: 150467 Lb
11:17 Wind:161º@019 Knots Heading: 267º Ground Speed: 499 Knots Altitude 34619 ft
11:32 Wind:081º@018 Knots Heading: 248º Ground Speed: 506 Knots Altitude 36761 ft
11:47 Wind:357º@002 Knots Heading: 213º Ground Speed: 487 Knots Altitude 36833 ft
12:02 Wind:357º@002 Knots Heading: 205º Ground Speed: 488 Knots Altitude 36830 ft
12:17 Wind:357º@002 Knots Heading: 219º Ground Speed: 487 Knots Altitude 36833 ft
12:32 Wind:357º@002 Knots Heading: 218º Ground Speed: 488 Knots Altitude 36833 ft
12:47 Wind:357º@002 Knots Heading: 217º Ground Speed: 487 Knots Altitude 36830 ft
13:02 Wind:357º@002 Knots Heading: 217º Ground Speed: 487 Knots Altitude 36830 ft
13:17 Wind:004º@034 Knots Heading: 218º Ground Speed: 519 Knots Altitude 37211 ft
13:30 TOD
13:30 Fuel Weight: 101698 Lb
13:32 Wind:001º@044 Knots Heading: 229º Ground Speed: 470 Knots Altitude 28559 ft
13:36 Flaps:1 at 285 Knots
13:37 Flaps:2 at 233 Knots
13:40 Flaps:3 at 213 Knots
13:41 Flaps:4 at 187 Knots
13:41 Gear Down: 179 Knots
13:42 Flaps:5 at 178 Knots
13:42 Flaps:6 at 155 Knots
13:47 Wind:008º@011 Knots Heading: 019º Ground Speed: 141 Knots Altitude 1089 ft
13:48 TouchDown:Rate -292 ft/min Speed: 142 Knots
13:48 VATSIM:GCLP 262330Z 36011KT 9999 FEW020 19/15 Q1021 NOSIG
13:49 Land
13:49 Wind:008º@011 Knots
13:49 Heading: 021º
13:49 Flight Duration: 02:47
13:49 Landing Weight: 521409 Lbs
13:49 POS N27º 56´ 08´´ W015º 23´ 05´´
13:50 Parking brakes on
13:50 Block to Block Duration: 02:59
13:50 Final Fuel: 57198 Lbls
13:50 Spent Fuel: 108719 Lbls
13:50 Flight Length: 1286 NM
13:50 TOD Land Length: 81 NM

Exportar CSV

Powered by Drupal - Modified by Danger4k